Time;durP1;ratioP1;P1;durP2;ratioP2;P2;SDS_P1;SDS_P2;PMS_P1;PMS_P2;Temp;Humidity;BMP_temperature;BMP_pressure;BME280_temperature;BME280_humidity;BME280_pressure;Samples;Min_cycle;Max_cycle;Signal;HPM_P1;HPM_P2
2023/06/07 00:00:18;;;;;;;3.90;3.50;;;;;;;18.32;62.26;95668.34;4998106;28;20272;-90
2023/06/07 00:10:43;;;;;;;5.03;3.50;;;;;;;18.35;61.67;95654.88;4918273;28;20299;-89
2023/06/07 00:13:13;;;;;;;4.72;3.22;;;;;;;18.35;61.31;95654.88;4925041;28;20215;-89
2023/06/07 00:16:11;;;;;;;3.50;3.20;;;;;;;18.35;61.54;95653.06;4988640;28;20680;-89
2023/06/07 00:21:44;;;;;;;3.75;3.05;;;;;;;18.32;61.45;95652.72;5021860;28;20217;-89
2023/06/07 00:24:37;;;;;;;3.80;3.50;;;;;;;18.25;61.64;95651.00;5031427;28;20629;-89
2023/06/07 00:27:14;;;;;;;13.15;11.93;;;;;;;18.21;61.83;95647.25;5030325;28;20206;-90
2023/06/07 00:30:04;;;;;;;27.90;25.23;;;;;;;18.15;61.74;95642.13;5031529;28;20257;-90
2023/06/07 00:46:46;;;;;;;3.38;3.08;;;;;;;18.02;62.18;95635.31;5000309;28;20210;-89
2023/06/07 01:30:22;;;;;;;3.70;3.10;;;;;;;17.56;62.95;95610.59;750621;22;21324;-89
2023/06/07 01:33:49;;;;;;;3.65;3.35;;;;;;;17.50;63.05;95627.13;5007556;28;20704;-89
2023/06/07 01:36:57;;;;;;;3.42;3.13;;;;;;;17.42;63.21;95624.81;5009655;28;20257;-89
2023/06/07 01:40:07;;;;;;;3.40;3.10;;;;;;;17.38;63.34;95618.44;4996752;28;20230;-89
2023/06/07 01:42:35;;;;;;;3.05;2.85;;;;;;;17.39;62.92;95614.03;4990161;28;20611;-89
2023/06/07 01:45:12;;;;;;;6.85;6.20;;;;;;;17.33;63.21;95613.06;4990652;28;20200;-89
2023/06/07 01:47:45;;;;;;;10.70;9.70;;;;;;;17.36;63.21;95612.66;4998258;28;20203;-89
2023/06/07 01:50:48;;;;;;;12.63;11.55;;;;;;;17.38;63.27;95615.03;4996803;28;20219;-89
2023/06/07 01:53:42;;;;;;;5.10;4.70;;;;;;;17.39;63.28;95611.41;4948700;28;20200;-89
2023/06/07 01:56:55;;;;;;;5.05;3.38;;;;;;;17.34;63.29;95606.06;4959701;28;20206;-89
2023/06/07 02:20:40;;;;;;;3.15;2.90;;;;;;;16.96;64.56;95606.28;4917500;29;20242;-89
2023/06/07 02:26:26;;;;;;;3.58;3.28;;;;;;;16.96;64.23;95611.47;4937932;28;20215;-89
2023/06/07 02:29:18;;;;;;;3.78;3.30;;;;;;;16.92;64.73;95611.94;4985750;28;20497;-89
2023/06/07 02:32:09;;;;;;;3.80;3.40;;;;;;;16.96;64.39;95616.69;4988646;28;20211;-89
2023/06/07 02:34:39;;;;;;;3.63;3.33;;;;;;;16.95;64.55;95618.47;4989013;28;20299;-88
2023/06/07 02:37:07;;;;;;;3.55;3.25;;;;;;;16.96;64.56;95620.06;4988718;28;20213;-89
2023/06/07 02:40:04;;;;;;;3.13;2.90;;;;;;;17.01;64.39;95624.63;4989133;28;20235;-89
2023/06/07 02:42:39;;;;;;;5.25;4.75;;;;;;;17.01;64.01;95622.84;4966053;28;20701;-89
2023/06/07 02:45:10;;;;;;;12.93;11.68;;;;;;;16.93;64.59;95616.09;5000647;28;20289;-88
2023/06/07 02:47:36;;;;;;;6.75;6.00;;;;;;;16.91;64.43;95614.75;4993620;28;20677;-89
2023/06/07 02:50:15;;;;;;;4.15;3.85;;;;;;;17.00;63.94;95621.25;4988562;28;20222;-89
2023/06/07 02:52:55;;;;;;;3.85;3.55;;;;;;;17.01;64.01;95617.63;5003429;28;20218;-89
2023/06/07 02:55:25;;;;;;;4.00;3.67;;;;;;;16.98;64.43;95623.25;5009019;28;20727;-89
2023/06/07 02:57:52;;;;;;;4.18;3.40;;;;;;;17.01;63.88;95619.44;5008260;28;20708;-89
2023/06/07 03:00:23;;;;;;;4.15;3.63;;;;;;;17.01;64.08;95628.03;5008228;28;20229;-89
2023/06/07 03:02:52;;;;;;;3.80;3.50;;;;;;;16.89;64.49;95620.16;4988769;28;20290;-88
2023/06/07 03:05:35;;;;;;;3.53;3.28;;;;;;;16.91;64.40;95620.75;4988331;28;20203;-89
2023/06/07 03:08:10;;;;;;;3.80;3.50;;;;;;;16.87;64.26;95622.19;4988788;28;20210;-89
2023/06/07 03:10:55;;;;;;;3.90;3.50;;;;;;;16.83;64.78;95617.59;4988646;28;20238;-89
2023/06/07 03:13:26;;;;;;;3.92;3.63;;;;;;;16.82;64.70;95624.63;4989068;28;20649;-88
2023/06/07 03:15:59;;;;;;;3.95;3.63;;;;;;;16.79;65.14;95619.84;4988173;28;20250;-88
2023/06/07 03:18:25;;;;;;;3.95;3.38;;;;;;;16.76;65.05;95627.25;4990001;28;20404;-89
2023/06/07 03:21:02;;;;;;;5.63;3.63;;;;;;;16.75;65.01;95634.25;4987999;28;20594;-89
2023/06/07 03:23:36;;;;;;;3.97;3.53;;;;;;;16.71;65.01;95627.13;4988701;28;20250;-89
2023/06/07 03:26:07;;;;;;;6.53;3.60;;;;;;;16.67;65.20;95636.34;4988684;28;20294;-90
2023/06/07 03:28:37;;;;;;;3.80;3.50;;;;;;;16.68;65.24;95640.56;4988906;28;20254;-89
2023/06/07 03:31:09;;;;;;;3.80;3.50;;;;;;;16.63;65.66;95641.19;4989030;28;20211;-89
2023/06/07 03:33:45;;;;;;;4.18;3.80;;;;;;;16.61;65.47;95634.56;4984941;28;20298;-88
2023/06/07 03:36:17;;;;;;;3.80;3.50;;;;;;;16.61;65.46;95645.75;4988235;28;20195;-88
2023/06/07 03:39:02;;;;;;;4.03;3.72;;;;;;;16.66;65.94;95645.16;4988214;28;20586;-90
2023/06/07 03:41:32;;;;;;;4.20;3.90;;;;;;;16.69;65.64;95649.94;4978487;28;20728;-89
2023/06/07 03:44:15;;;;;;;4.00;3.70;;;;;;;16.68;66.30;95643.94;4986985;28;20234;-89
2023/06/07 03:46:42;;;;;;;4.25;3.95;;;;;;;16.69;66.72;95648.13;4988237;28;20266;-90
2023/06/07 03:49:14;;;;;;;4.25;3.85;;;;;;;16.73;66.71;95657.13;4988168;28;20282;-89
2023/06/07 03:52:00;;;;;;;3.88;3.58;;;;;;;16.72;66.93;95652.13;4993774;28;20199;-89
2023/06/07 03:54:34;;;;;;;4.22;3.92;;;;;;;16.69;67.45;95655.94;4993797;28;20199;-89
2023/06/07 03:57:01;;;;;;;4.00;3.70;;;;;;;16.71;68.44;95658.34;4988063;28;20202;-90
2023/06/07 03:59:38;;;;;;;4.30;4.00;;;;;;;16.77;67.57;95658.25;4988437;28;20318;-89
2023/06/07 04:02:05;;;;;;;4.10;3.70;;;;;;;16.84;67.59;95655.59;4990502;28;20571;-88
2023/06/07 04:04:32;;;;;;;4.47;3.88;;;;;;;16.92;67.14;95655.34;4990986;28;20582;-89
2023/06/07 04:07:00;;;;;;;4.20;3.80;;;;;;;16.86;67.55;95664.78;4991473;28;20618;-88
2023/06/07 04:09:28;;;;;;;4.32;3.92;;;;;;;16.87;67.78;95663.78;4991406;28;20227;-89
2023/06/07 04:12:01;;;;;;;5.18;4.22;;;;;;;16.77;68.51;95660.84;4992046;28;20669;-89
2023/06/07 04:14:28;;;;;;;5.18;3.90;;;;;;;16.90;67.35;95665.16;4991972;28;20234;-89
2023/06/07 04:17:02;;;;;;;5.53;4.30;;;;;;;16.91;67.21;95666.75;4990942;28;20196;-89
2023/06/07 04:19:48;;;;;;;4.68;4.28;;;;;;;16.89;68.16;95664.38;4991378;28;20230;-89
2023/06/07 04:22:17;;;;;;;4.30;4.00;;;;;;;16.94;67.88;95663.72;4991139;28;20278;-90
2023/06/07 04:24:52;;;;;;;4.47;4.07;;;;;;;16.95;68.09;95667.91;4990828;28;20206;-91
2023/06/07 04:27:29;;;;;;;4.55;4.15;;;;;;;16.99;68.17;95671.66;4987679;28;20282;-90
2023/06/07 04:30:01;;;;;;;4.40;4.10;;;;;;;16.97;68.24;95662.50;4991592;28;20258;-89
2023/06/07 04:32:39;;;;;;;5.18;4.22;;;;;;;17.01;67.80;95666.25;4995223;28;20207;-89
2023/06/07 04:35:06;;;;;;;5.32;4.10;;;;;;;17.05;67.73;95657.81;5007365;28;20751;-89
2023/06/07 04:37:34;;;;;;;5.47;4.05;;;;;;;17.08;67.85;95669.59;4998582;28;20194;-87
2023/06/07 04:40:03;;;;;;;5.32;4.10;;;;;;;17.09;68.34;95668.59;5009891;28;20231;-88
2023/06/07 04:42:37;;;;;;;4.45;3.97;;;;;;;17.08;68.83;95662.59;5010389;28;20206;-87
2023/06/07 04:45:10;;;;;;;4.90;4.00;;;;;;;17.23;67.86;95667.44;5011458;28;20203;-89
2023/06/07 04:47:45;;;;;;;4.70;4.30;;;;;;;17.27;67.89;95674.63;4996112;28;20684;-89
2023/06/07 04:50:21;;;;;;;5.03;4.65;;;;;;;17.35;68.02;95672.72;4991706;28;20498;-89
2023/06/07 04:52:49;;;;;;;4.80;4.40;;;;;;;17.40;67.58;95673.69;5005767;28;20226;-89
2023/06/07 04:55:25;;;;;;;6.70;4.78;;;;;;;17.35;68.32;95673.53;4990966;28;20199;-89
2023/06/07 04:58:03;;;;;;;5.00;4.60;;;;;;;17.36;68.44;95669.91;4990967;28;20830;-91
2023/06/07 05:00:38;;;;;;;4.80;4.40;;;;;;;17.46;67.86;95670.22;5001125;28;20227;-91
2023/06/07 05:03:08;;;;;;;5.43;4.93;;;;;;;17.48;67.82;95672.59;5008819;28;20203;-90
2023/06/07 05:05:41;;;;;;;5.57;5.18;;;;;;;17.51;67.75;95670.34;5002784;28;20226;-90
2023/06/07 05:08:16;;;;;;;6.05;5.47;;;;;;;17.56;67.52;95672.28;4990985;28;20207;-91
2023/06/07 05:10:49;;;;;;;6.13;5.53;;;;;;;17.67;67.15;95679.44;4991164;28;20199;-91
2023/06/07 05:13:22;;;;;;;5.85;5.45;;;;;;;17.74;67.23;95674.91;4990709;28;20211;-91
2023/06/07 05:16:04;;;;;;;5.93;5.47;;;;;;;17.80;67.38;95681.06;4990804;28;20203;-91
2023/06/07 05:18:46;;;;;;;5.70;5.20;;;;;;;17.81;68.06;95683.47;4981032;23;20725;-91
2023/06/07 05:21:41;;;;;;;6.15;5.30;;;;;;;17.93;67.66;95679.09;4990615;28;20222;-91
2023/06/07 05:24:28;;;;;;;;;;;;;;;;;;;;;
2023/06/07 05:27:22;;;;;;;5.95;5.45;;;;;;;18.17;67.25;95681.81;4990524;28;20211;-91
2023/06/07 05:29:51;;;;;;;6.15;5.55;;;;;;;18.21;66.91;95681.13;4990862;28;20219;-91
2023/06/07 05:32:21;;;;;;;6.60;5.78;;;;;;;18.25;66.88;95681.50;4990633;28;20197;-91
2023/06/07 05:34:52;;;;;;;9.30;6.43;;;;;;;18.31;67.44;95677.97;4990286;28;20296;-92
2023/06/07 05:37:29;;;;;;;6.47;5.85;;;;;;;18.30;67.69;95676.41;4990664;28;20265;-91
2023/06/07 05:39:58;;;;;;;6.82;5.90;;;;;;;18.42;67.68;95674.63;4990775;28;20231;-91
2023/06/07 05:42:41;;;;;;;6.78;6.18;;;;;;;18.55;67.14;95678.84;4990112;28;20266;-90
2023/06/07 05:45:20;;;;;;;6.65;5.70;;;;;;;18.61;66.72;95681.41;4967512;28;20913;-92
2023/06/07 05:51:07;;;;;;;7.32;6.45;;;;;;;18.68;67.48;95683.88;4972277;28;20199;-90
2023/06/07 05:53:45;;;;;;;6.57;5.90;;;;;;;18.74;67.61;95683.00;4990386;28;20227;-90
2023/06/07 05:56:16;;;;;;;6.40;5.80;;;;;;;18.72;68.31;95684.25;4990251;28;20295;-90
2023/06/07 05:58:50;;;;;;;5.82;5.43;;;;;;;18.83;67.60;95681.66;4990257;28;20872;-91
2023/06/07 06:01:17;;;;;;;6.38;5.88;;;;;;;18.92;67.27;95676.88;4990272;28;20247;-91
2023/06/07 06:03:48;;;;;;;6.57;5.70;;;;;;;18.91;67.97;95683.91;4990405;28;20212;-91
2023/06/07 06:06:23;;;;;;;6.75;6.15;;;;;;;19.01;67.61;95688.59;4989746;28;20211;-91
2023/06/07 06:08:52;;;;;;;6.85;6.15;;;;;;;19.12;66.90;95690.41;4989875;28;20227;-90
2023/06/07 06:11:44;;;;;;;6.70;6.20;;;;;;;19.15;67.38;95691.75;4990180;28;20680;-92
2023/06/07 06:14:32;;;;;;;7.00;6.40;;;;;;;19.07;67.99;95685.06;4990049;28;20207;-90
2023/06/07 06:17:09;;;;;;;12.02;10.93;;;;;;;19.00;68.67;95684.41;4983325;28;20265;-91
2023/06/07 06:19:49;;;;;;;;;;;;;;;;;;;;;
2023/06/07 06:22:16;;;;;;;8.35;7.55;;;;;;;19.31;66.98;95689.25;4989800;28;20224;-91
2023/06/07 06:24:43;;;;;;;6.13;5.72;;;;;;;19.41;66.58;95690.50;4990559;28;20191;-91
2023/06/07 06:27:12;;;;;;;6.05;5.55;;;;;;;19.47;66.60;95679.94;4990349;28;20297;-91
2023/06/07 06:30:09;;;;;;;6.93;6.43;;;;;;;19.39;67.17;95688.13;4986096;28;20208;-91
2023/06/07 06:36:03;;;;;;;7.28;6.10;;;;;;;19.47;67.56;95684.34;4976465;28;20207;-90
2023/06/07 06:38:50;;;;;;;6.90;6.30;;;;;;;19.48;67.34;95694.56;5009607;28;20810;-91
2023/06/07 06:47:17;;;;;;;7.85;5.55;;;;;;;19.72;66.86;95697.97;5004081;28;20301;-90
2023/06/07 06:49:49;;;;;;;6.20;5.60;;;;;;;19.71;67.21;95700.81;5003787;28;20305;-92
2023/06/07 06:55:41;;;;;;;6.47;5.88;;;;;;;19.95;66.53;95692.69;4979266;28;20210;-91
2023/06/07 06:58:10;;;;;;;6.38;5.78;;;;;;;19.95;66.31;95686.69;4989756;28;20222;-91
2023/06/07 07:00:45;;;;;;;6.93;6.32;;;;;;;19.98;65.66;95687.00;4989303;28;20716;-91
2023/06/07 07:06:24;;;;;;;6.78;5.93;;;;;;;19.81;66.24;95690.59;4982165;28;20215;-91
2023/06/07 07:09:07;;;;;;;8.32;6.63;;;;;;;19.87;67.18;95692.25;4989416;28;20322;-92
2023/06/07 07:11:49;;;;;;;6.32;5.82;;;;;;;19.97;66.09;95692.47;4989093;28;20215;-90
2023/06/07 07:14:37;;;;;;;7.32;6.15;;;;;;;19.87;66.00;95684.41;4989674;28;20202;-92
2023/06/07 07:20:19;;;;;;;6.60;6.00;;;;;;;20.13;66.69;95696.97;4985560;28;20262;-91
2023/06/07 07:26:02;;;;;;;17.30;15.60;;;;;;;20.34;65.98;95695.50;4972732;28;20199;-91
2023/06/07 07:28:34;;;;;;;8.80;8.05;;;;;;;20.39;65.91;95694.84;4969703;28;20318;-91
2023/06/07 07:44:58;;;;;;;5.38;4.97;;;;;;;21.31;61.58;95703.13;4131000;26;20205;-91
2023/06/07 07:47:34;;;;;;;6.93;6.07;;;;;;;21.20;61.36;95702.19;5031909;28;20685;-90
2023/06/07 07:54:29;;;;;;;;;;;;;;;;;;;;;
2023/06/07 07:57:24;;;;;;;6.10;5.50;;;;;;;21.69;58.85;95684.78;4969345;28;20212;-91
2023/06/07 07:59:58;;;;;;;5.13;4.72;;;;;;;21.89;57.75;95686.06;4969600;28;20288;-92
2023/06/07 08:06:08;;;;;;;;;;;;;;;;;;;;;
2023/06/07 08:12:48;;;;;;;5.00;4.50;;;;;;;22.03;55.92;95685.47;4931084;29;20201;-91
2023/06/07 08:16:12;;;;;;;4.53;4.13;;;;;;;22.15;54.60;95680.06;4932037;29;20711;-93
2023/06/07 08:22:50;;;;;;;4.65;4.25;;;;;;;22.29;53.41;95672.63;4832020;29;20231;-91
2023/06/07 08:31:51;;;;;;;6.55;4.07;;;;;;;22.12;52.96;95671.94;4898429;29;20217;-92
2023/06/07 08:37:28;;;;;;;6.65;6.05;;;;;;;22.60;51.52;95673.69;4907642;29;20968;-92
2023/06/07 08:47:04;;;;;;;;;;;;;;;;;;;;;
2023/06/07 09:03:56;;;;;;;3.58;3.28;;;;;;;23.81;48.05;95680.81;4988213;28;20956;-92
2023/06/07 09:06:38;;;;;;;4.32;3.70;;;;;;;23.89;48.97;95675.84;4989095;28;20223;-92
2023/06/07 09:09:31;;;;;;;9.10;8.20;;;;;;;23.99;48.69;95672.47;4997229;28;20218;-91
2023/06/07 09:12:46;;;;;;;4.65;4.20;;;;;;;24.07;48.45;95672.75;5011507;28;20210;-91
2023/06/07 09:15:52;;;;;;;4.53;4.18;;;;;;;24.25;47.71;95668.88;5010712;28;20203;-91
2023/06/07 09:19:06;;;;;;;5.03;4.53;;;;;;;24.16;48.39;95667.78;5009948;28;20235;-91
2023/06/07 09:22:05;;;;;;;7.70;3.83;;;;;;;24.23;47.43;95668.34;4891932;29;20226;-93
2023/06/07 09:24:55;;;;;;;4.43;3.85;;;;;;;24.07;47.47;95671.97;4967175;28;20211;-91
2023/06/07 09:34:26;;;;;;;3.80;3.50;;;;;;;23.80;47.28;95673.97;4987855;28;20235;-91
2023/06/07 09:43:46;;;;;;;4.80;3.53;;;;;;;24.16;44.63;95670.41;5006824;28;20241;-92
2023/06/07 09:49:00;;;;;;;3.53;3.25;;;;;;;24.74;43.88;95660.50;5007419;28;20289;-93
2023/06/07 09:51:53;;;;;;;4.40;3.38;;;;;;;25.07;42.31;95665.25;5012035;28;20194;-91
2023/06/07 10:39:18;;;;;;;;;;;;;;;;;;;;;
2023/06/07 10:44:48;;;;;;;4.28;3.50;;;;;;;26.73;38.96;95629.72;5028418;28;20325;-92
2023/06/07 10:47:53;;;;;;;3.70;3.40;;;;;;;26.83;37.94;95629.59;5016405;28;20568;-92
2023/06/07 10:51:12;;;;;;;4.30;3.42;;;;;;;26.92;36.86;95629.81;5008973;28;20287;-92
2023/06/07 10:54:08;;;;;;;3.67;3.15;;;;;;;26.82;36.12;95628.81;5009146;28;20756;-92
2023/06/07 10:57:17;;;;;;;5.30;3.53;;;;;;;27.03;35.04;95626.03;5002097;28;20312;-92
2023/06/07 10:59:47;;;;;;;3.38;3.05;;;;;;;27.13;36.07;95623.28;5009051;28;20288;-92
2023/06/07 11:02:44;;;;;;;4.55;3.25;;;;;;;27.23;36.42;95619.75;5008843;28;20732;-90
2023/06/07 11:05:17;;;;;;;5.72;3.40;;;;;;;27.28;35.87;95622.34;4947517;29;20284;-91
2023/06/07 11:11:53;;;;;;;7.47;6.70;;;;;;;27.31;34.22;95624.44;4670774;26;20304;-91
2023/06/07 11:14:42;;;;;;;6.22;4.10;;;;;;;27.56;34.65;95615.41;5005331;28;20230;-91
2023/06/07 11:17:53;;;;;;;3.63;3.33;;;;;;;27.26;33.85;95619.19;5027074;28;20197;-91
2023/06/07 11:20:57;;;;;;;3.95;3.65;;;;;;;26.55;34.27;95625.09;5028552;28;20606;-90
2023/06/07 11:24:02;;;;;;;4.03;3.63;;;;;;;26.48;34.12;95614.84;5027554;28;20633;-91
2023/06/07 11:30:40;;;;;;;3.75;3.45;;;;;;;26.92;35.60;95613.94;4870225;29;20861;-91
2023/06/07 11:34:03;;;;;;;3.85;3.47;;;;;;;27.04;35.84;95612.53;4844803;29;20232;-91
2023/06/07 11:37:11;;;;;;;4.05;3.60;;;;;;;27.21;34.66;95608.66;4922839;29;20265;-91
2023/06/07 11:49:51;;;;;;;4.07;3.67;;;;;;;27.48;33.47;95600.97;4958719;28;20220;-91
2023/06/07 11:59:29;;;;;;;;;;;;;;;;;;;;;
2023/06/07 12:11:22;;;;;;;3.03;2.83;;;;;;;27.59;32.60;95581.25;5026566;28;20590;-92
2023/06/07 12:14:45;;;;;;;3.35;3.05;;;;;;;27.67;32.90;95580.66;5027212;28;20248;-90
2023/06/07 12:17:39;;;;;;;3.30;3.10;;;;;;;27.63;32.32;95577.00;4965822;28;20687;-91
2023/06/07 12:20:14;;;;;;;3.67;3.38;;;;;;;27.81;32.63;95572.78;4915270;29;20229;-91
2023/06/07 12:23:37;;;;;;;3.78;3.38;;;;;;;27.91;32.54;95562.03;4933966;28;20224;-90
2023/06/07 12:32:57;;;;;;;3.75;3.45;;;;;;;28.12;31.98;95558.03;4952943;28;20193;-90
2023/06/07 12:35:24;;;;;;;3.88;3.58;;;;;;;28.24;32.18;95549.69;5011158;28;20195;-90
2023/06/07 12:38:24;;;;;;;5.28;3.50;;;;;;;28.35;31.23;95547.66;5010477;28;20199;-90
2023/06/07 12:41:12;;;;;;;5.88;3.55;;;;;;;28.44;30.88;95545.94;5011443;28;20206;-90
2023/06/07 12:43:46;;;;;;;4.20;3.70;;;;;;;28.59;31.32;95540.38;5009978;28;20227;-90
2023/06/07 12:49:58;;;;;;;3.72;3.33;;;;;;;28.59;29.90;95543.00;5030025;28;20234;-91
2023/06/07 13:05:14;;;;;;;;;;;;;;;;;;;;;
2023/06/07 13:08:23;;;;;;;3.78;3.38;;;;;;;27.97;30.60;95521.19;5030864;28;20209;-91
2023/06/07 13:11:14;;;;;;;3.92;3.50;;;;;;;28.12;30.39;95520.19;5026412;28;20210;-92
2023/06/07 13:13:55;;;;;;;4.47;3.50;;;;;;;27.95;30.29;95518.06;5030806;28;20341;-92
2023/06/07 13:19:55;;;;;;;4.10;3.20;;;;;;;27.52;31.32;95522.59;4975889;28;20230;-92
2023/06/07 13:28:01;;;;;;;5.22;4.82;;;;;;;27.05;31.50;95510.25;5028281;28;20289;-91
2023/06/07 14:50:31;;;;;;;;;;;;;;;;;;;;;
2023/06/07 14:53:08;;;;;;;3.88;3.13;;;;;;;27.90;28.49;95451.19;5041893;28;20206;-89
2023/06/07 14:55:44;;;;;;;;;;;;;;;;;;;;;
2023/06/07 14:58:35;;;;;;;4.53;3.40;;;;;;;27.86;28.28;95445.69;5028800;28;20201;-90
2023/06/07 15:01:03;;;;;;;5.05;3.00;;;;;;;27.85;28.63;95452.06;5008810;28;20198;-90
2023/06/07 15:03:37;;;;;;;4.10;3.67;;;;;;;27.65;27.46;95444.44;5008385;28;20222;-90
2023/06/07 15:06:09;;;;;;;4.60;3.30;;;;;;;27.68;28.38;95447.28;5008533;28;20207;-90
2023/06/07 15:11:33;;;;;;;3.75;3.45;;;;;;;27.67;28.96;95444.94;5001439;28;20286;-90
2023/06/07 15:14:07;;;;;;;3.20;3.00;;;;;;;27.65;28.31;95437.28;4989396;28;20568;-89
2023/06/07 15:16:36;;;;;;;5.10;3.65;;;;;;;27.56;28.65;95444.25;4995887;28;20561;-90
2023/06/07 15:19:03;;;;;;;4.72;3.88;;;;;;;27.63;28.57;95439.41;5008741;28;20221;-92
2023/06/07 15:21:33;;;;;;;3.50;3.30;;;;;;;27.56;27.89;95446.09;4989123;28;20219;-89
2023/06/07 15:24:09;;;;;;;4.63;3.15;;;;;;;27.64;28.54;95435.69;4989039;28;20602;-89
2023/06/07 15:26:44;;;;;;;3.72;3.28;;;;;;;27.60;28.42;95436.56;4988458;28;20210;-91
2023/06/07 15:29:17;;;;;;;3.70;3.40;;;;;;;27.64;28.09;95437.56;4989109;28;20738;-90
2023/06/07 15:31:47;;;;;;;3.35;3.15;;;;;;;27.65;28.80;95431.97;4988654;28;20199;-89
2023/06/07 15:34:14;;;;;;;4.00;3.70;;;;;;;27.59;28.02;95433.13;4988560;28;20691;-89
2023/06/07 15:36:53;;;;;;;3.80;3.35;;;;;;;27.60;28.70;95429.41;4988857;28;20207;-90
2023/06/07 15:39:22;;;;;;;3.65;3.35;;;;;;;27.69;28.40;95429.56;4996501;28;20218;-90
2023/06/07 15:42:21;;;;;;;3.60;3.30;;;;;;;27.66;28.16;95432.78;5007936;28;20575;-91
2023/06/07 15:44:56;;;;;;;6.28;5.45;;;;;;;27.64;27.22;95433.06;5007513;28;20202;-91
2023/06/07 15:50:17;;;;;;;4.88;3.78;;;;;;;27.53;28.38;95428.94;5006414;28;20227;-89
2023/06/07 15:53:05;;;;;;;;;;;;;;;;;;;;;
2023/06/07 15:55:47;;;;;;;4.25;3.85;;;;;;;27.34;29.85;95441.38;5009175;28;20195;-91
2023/06/07 15:58:21;;;;;;;3.72;3.42;;;;;;;27.31;30.00;95440.13;5012330;28;20825;-89
2023/06/07 16:00:47;;;;;;;3.80;3.50;;;;;;;27.24;30.04;95430.97;5011091;28;20195;-90
2023/06/07 16:03:14;;;;;;;3.80;3.50;;;;;;;27.12;29.98;95426.88;5011698;28;20257;-89
2023/06/07 16:05:43;;;;;;;3.90;3.60;;;;;;;27.08;30.89;95433.81;5011363;28;20261;-89
2023/06/07 16:08:55;;;;;;;4.75;3.25;;;;;;;27.03;31.49;95425.94;5010478;28;20214;-90
2023/06/07 16:11:58;;;;;;;3.97;3.67;;;;;;;27.03;30.74;95425.94;5011466;28;20281;-89
2023/06/07 16:14:45;;;;;;;;;;;;;;;;;;;;;
2023/06/07 16:17:15;;;;;;;4.00;3.42;;;;;;;26.76;31.17;95423.06;5011217;28;20207;-89
2023/06/07 16:20:12;;;;;;;4.13;3.53;;;;;;;26.75;31.14;95422.28;5011686;28;20210;-89
2023/06/07 16:22:43;;;;;;;4.03;3.55;;;;;;;26.65;31.61;95422.41;5010433;28;20694;-89
2023/06/07 16:25:18;;;;;;;3.83;3.53;;;;;;;26.61;31.58;95428.53;5011316;28;20616;-90
2023/06/07 16:28:15;;;;;;;3.83;3.47;;;;;;;26.64;31.95;95420.81;5012092;28;20301;-90
2023/06/07 16:39:50;;;;;;;4.20;3.80;;;;;;;26.26;32.48;95417.25;5013919;28;20221;-89
2023/06/07 16:45:49;;;;;;;6.70;4.10;;;;;;;26.29;33.40;95421.19;5013560;28;20207;-86
2023/06/07 16:48:29;;;;;;;3.95;3.65;;;;;;;26.25;33.25;95420.16;5011483;28;20199;-87
2023/06/07 16:51:21;;;;;;;6.65;3.83;;;;;;;26.25;33.35;95412.25;5012432;28;20315;-86
2023/06/07 16:53:48;;;;;;;4.07;3.78;;;;;;;26.20;33.18;95407.78;5003587;28;20218;-86
2023/06/07 16:56:35;;;;;;;5.95;3.92;;;;;;;26.14;32.59;95408.94;5012006;28;20620;-86
2023/06/07 16:59:12;;;;;;;5.85;4.18;;;;;;;26.09;32.39;95412.41;5013103;28;20234;-85
2023/06/07 17:01:39;;;;;;;9.00;4.40;;;;;;;26.05;32.54;95411.38;5013980;28;20834;-85
2023/06/07 17:04:16;;;;;;;8.98;3.70;;;;;;;26.10;34.70;95410.53;5014531;28;20249;-87
2023/06/07 17:06:49;;;;;;;4.30;3.92;;;;;;;26.08;33.25;95410.81;5017611;28;20608;-87
2023/06/07 17:09:16;;;;;;;9.70;3.85;;;;;;;25.98;32.62;95407.50;5011604;28;20230;-86
2023/06/07 17:11:42;;;;;;;5.28;3.58;;;;;;;25.90;32.82;95406.22;5011396;28;20213;-86
2023/06/07 17:14:10;;;;;;;4.15;3.50;;;;;;;25.81;32.26;95399.97;5013062;28;20195;-86
2023/06/07 17:16:37;;;;;;;3.80;3.50;;;;;;;25.75;33.31;95401.88;5012519;28;20195;-86
2023/06/07 17:19:03;;;;;;;5.43;3.65;;;;;;;25.62;33.11;95402.50;5012654;28;20226;-85
2023/06/07 17:21:30;;;;;;;4.03;3.72;;;;;;;25.62;34.44;95394.56;5012539;28;20246;-84
2023/06/07 17:23:56;;;;;;;4.28;3.88;;;;;;;25.66;34.26;95400.88;5013814;28;20223;-83
2023/06/07 17:26:23;;;;;;;4.10;3.80;;;;;;;25.60;34.22;95407.22;5013608;28;20202;-86
2023/06/07 17:28:49;;;;;;;4.90;3.95;;;;;;;25.60;34.17;95406.44;5014150;28;20226;-84
2023/06/07 17:31:17;;;;;;;4.10;3.80;;;;;;;25.51;34.26;95403.59;5013943;28;20203;-86
2023/06/07 17:33:43;;;;;;;5.15;4.18;;;;;;;25.45;34.11;95407.34;5013072;28;20203;-85
2023/06/07 17:36:10;;;;;;;4.38;3.88;;;;;;;25.45;34.96;95410.75;5014154;28;20207;-86
2023/06/07 17:38:36;;;;;;;4.03;3.65;;;;;;;25.48;34.95;95412.06;5013223;28;20265;-84
2023/06/07 17:41:03;;;;;;;4.30;3.67;;;;;;;25.51;34.12;95416.00;5012926;28;20338;-87
2023/06/07 17:43:30;;;;;;;4.78;4.00;;;;;;;25.41;34.05;95422.13;5014879;28;20224;-86
2023/06/07 17:45:56;;;;;;;5.30;3.65;;;;;;;25.33;35.54;95418.22;5013090;28;20230;-87
2023/06/07 17:48:24;;;;;;;4.50;3.97;;;;;;;25.33;35.00;95422.72;5011939;28;20199;-84
2023/06/07 17:50:58;;;;;;;9.68;4.35;;;;;;;25.26;35.50;95412.47;5011978;28;20496;-87
2023/06/07 17:53:26;;;;;;;6.65;4.57;;;;;;;25.29;37.40;95429.59;5015264;28;20199;-87
2023/06/07 17:55:52;;;;;;;5.60;4.78;;;;;;;25.17;35.48;95423.88;5015380;28;20199;-87
2023/06/07 17:58:21;;;;;;;4.57;4.28;;;;;;;25.00;36.05;95424.22;5015045;28;20261;-88
2023/06/07 18:01:00;;;;;;;4.90;4.50;;;;;;;24.98;36.48;95426.34;5015196;28;20410;-88
2023/06/07 18:03:35;;;;;;;6.63;4.25;;;;;;;24.90;37.71;95419.75;5015421;28;20435;-87
2023/06/07 18:06:07;;;;;;;4.60;4.20;;;;;;;24.87;36.60;95427.38;5014903;28;20198;-87
2023/06/07 18:08:43;;;;;;;4.30;4.00;;;;;;;24.88;36.35;95419.22;5027917;28;20228;-88
2023/06/07 18:11:43;;;;;;;7.30;6.38;;;;;;;24.79;36.13;95426.13;5019787;28;20277;-88
2023/06/07 18:18:54;;;;;;;4.68;4.28;;;;;;;24.78;37.00;95430.59;4768156;30;20564;-88
2023/06/07 18:44:40;;;;;;;5.00;4.47;;;;;;;24.52;37.02;95433.56;2917832;26;20225;-90
2023/06/07 18:47:38;;;;;;;5.35;4.80;;;;;;;24.50;36.98;95435.69;4998215;28;20199;-92
2023/06/07 18:50:53;;;;;;;5.45;4.10;;;;;;;24.47;37.07;95436.22;5017830;28;20298;-92
2023/06/07 18:56:26;;;;;;;4.80;4.30;;;;;;;24.37;37.57;95434.41;5014207;28;20816;-91
2023/06/07 18:59:05;;;;;;;4.68;4.28;;;;;;;24.31;37.49;95433.63;5017859;28;20249;-91
2023/06/07 19:01:31;;;;;;;4.93;4.43;;;;;;;24.28;37.55;95436.78;5007329;28;20198;-90
2023/06/07 19:09:48;;;;;;;5.80;5.30;;;;;;;24.13;38.39;95439.41;5007144;28;20225;-92
2023/06/07 19:12:23;;;;;;;5.40;4.90;;;;;;;24.09;38.22;95438.34;5009081;28;20215;-91
2023/06/07 19:15:11;;;;;;;5.00;4.60;;;;;;;23.96;38.97;95437.06;5008457;28;20202;-91
2023/06/07 19:18:28;;;;;;;;;;;;;;;;;;;;;
2023/06/07 19:21:07;;;;;;;5.05;4.65;;;;;;;23.97;38.63;95446.53;5011269;28;20198;-91
2023/06/07 19:26:24;;;;;;;5.07;4.53;;;;;;;23.83;39.34;95445.47;4987366;28;20202;-92
2023/06/07 19:29:05;;;;;;;5.40;4.80;;;;;;;23.73;40.28;95448.88;5008673;28;20224;-92
2023/06/07 19:31:38;;;;;;;4.93;4.53;;;;;;;23.69;40.28;95444.41;5010178;28;20203;-91
2023/06/07 19:34:28;;;;;;;5.75;5.25;;;;;;;23.52;40.73;95444.66;5013085;28;20235;-91
2023/06/07 19:37:16;;;;;;;6.10;4.90;;;;;;;23.53;40.36;95454.13;5012770;28;20226;-90
2023/06/07 19:43:29;;;;;;;5.38;4.80;;;;;;;23.45;41.40;95454.63;5001124;28;20281;-92
2023/06/07 19:46:18;;;;;;;5.28;4.78;;;;;;;23.35;41.72;95459.84;4995717;28;20207;-92
2023/06/07 19:48:53;;;;;;;5.97;5.05;;;;;;;23.33;41.43;95460.09;5014887;28;20331;-91
2023/06/07 19:51:57;;;;;;;5.10;4.60;;;;;;;23.18;43.11;95459.25;5017621;28;20189;-92
2023/06/07 20:01:08;;;;;;;5.25;4.80;;;;;;;23.01;42.98;95470.78;5012159;28;20297;-91
2023/06/07 20:03:52;;;;;;;6.05;5.53;;;;;;;22.93;43.29;95473.88;5013790;28;20194;-91
2023/06/07 20:06:38;;;;;;;;;;;;;;;;;;;;;
2023/06/07 20:09:54;;;;;;;;;;;;;;;;;;;;;
2023/06/07 20:12:40;;;;;;;6.50;5.90;;;;;;;22.82;43.88;95479.34;5013521;28;20214;-91
2023/06/07 20:15:12;;;;;;;6.20;5.60;;;;;;;22.79;43.41;95480.66;5013554;28;20203;-90
2023/06/07 20:17:47;;;;;;;7.38;6.57;;;;;;;22.63;44.79;95476.34;5012846;28;20269;-92
2023/06/07 20:20:25;;;;;;;12.00;10.75;;;;;;;22.63;44.28;95481.59;5017708;28;20210;-91
2023/06/07 20:23:25;;;;;;;12.95;11.70;;;;;;;22.61;44.46;95487.09;5013446;28;20277;-92